Princeton, MN

1:18 AM CST on November 19, 2019 (GMT -0600)
Princeton Municipal

Weather History for KPNM - August, 2019

Change the Weather History Date:

Thursday, August 22, 2019

  Actual Average Record
Temperature  
Mean Temperature 62 °F -  
Max Temperature 73 °F 76 °F 86 °F (2001)
Min Temperature 51 °F 55 °F 44 °F (2005)
Degree Days  
Heating Degree Days 3    
Growing Degree Days 12 (Base 50)    
Moisture  
Dew Point 52 °F    
Average Humidity 68    
Maximum Humidity 100    
Minimum Humidity 38    
Precipitation  
Precipitation 0.00 in - - ()
Sea Level Pressure  
Sea Level Pressure 30.11 in    
Wind  
Wind Speed 2 mph (NE)    
Max Wind Speed 9 mph    
Max Gust Speed -    
Visibility 10 miles    
Events      
Averages and records for this station are not official NWS values.
T = Trace of Precipitation, MM = Missing Value Source: NWS Daily Summary

Daily Weather History Graph

Daily Weather History Graph

Search for Another Location

Airport or City:

Astronomy

Aug. 22, 2019 Rise Set
Actual Time 6:23 AM CDT 8:10 PM CDT
Civil Twilight 5:51 AM CDT 8:42 PM CDT
Nautical Twilight 5:13 AM CDT 9:20 PM CDT
Astronomical Twilight 4:30 AM CDT 10:02 PM CDT
Moon 11:40 PM CDT (8/22) 1:19 PM CDT (8/22)
Length of Visible Light 14h 50m
Length of Day
13h 47m
Waning Gibbous, 59% of the Moon is Illuminated
Aug 22
Waning Gibbous
Aug 23
Last Quarter
Aug 30
New
Sep 5
First Quarter
Sep 13
Full

Hourly Weather History & Observations

Time (CDT) Temp. Dew Point Humidity Pressure Visibility Wind Dir Wind Speed Gust Speed Precip Events Conditions
12:19 AM 55.4 °F 53.6 °F 94% 30.08 in 10.0 mi Calm Calm - N/A   Overcast
12:37 AM 57.2 °F 55.4 °F 94% 30.08 in 10.0 mi Calm Calm - N/A   Overcast
12:55 AM 57.2 °F 55.4 °F 94% 30.08 in 10.0 mi Calm Calm - N/A   Overcast
1:15 AM 57.2 °F 53.6 °F 88% 30.08 in 10.0 mi Calm Calm - N/A   Overcast
1:35 AM 59.0 °F 53.6 °F 82% 30.08 in 10.0 mi Calm Calm - N/A   Overcast
1:58 AM 59.0 °F 53.6 °F 82% 30.08 in 10.0 mi Calm Calm - N/A   Overcast
2:16 AM 57.2 °F 55.4 °F 94% 30.07 in 10.0 mi Calm Calm - N/A   Overcast
2:35 AM 57.2 °F 55.4 °F 94% 30.07 in 10.0 mi Calm Calm - N/A   Overcast
2:55 AM 57.2 °F 55.4 °F 94% 30.08 in 10.0 mi Calm Calm - N/A   Overcast
3:19 AM 57.2 °F 55.4 °F 94% 30.08 in 10.0 mi Calm Calm - N/A   Overcast
3:37 AM 57.2 °F 53.6 °F 88% 30.08 in 10.0 mi Calm Calm - N/A   Overcast
3:55 AM 55.4 °F 53.6 °F 94% 30.07 in 10.0 mi Calm Calm - N/A   Scattered Clouds
4:15 AM 53.6 °F 51.8 °F 94% 30.07 in 10.0 mi Calm Calm - N/A   Clear
4:35 AM 53.6 °F 51.8 °F 94% 30.07 in 10.0 mi Calm Calm - N/A   Clear
4:58 AM 53.6 °F 51.8 °F 94% 30.07 in 10.0 mi Calm Calm - N/A   Clear
5:16 AM 51.8 °F 51.8 °F 100% 30.07 in 10.0 mi Calm Calm - N/A   Clear
5:35 AM 51.8 °F 50.0 °F 94% 30.08 in 10.0 mi Calm Calm - N/A   Clear
5:36 AM 51.8 °F 50.0 °F 94% 30.08 in 10.0 mi Calm Calm - N/A   Clear
5:55 AM 51.8 °F 50.0 °F 94% 30.08 in 10.0 mi Calm Calm - N/A   Clear
6:15 AM 51.8 °F 50.0 °F 94% 30.09 in 10.0 mi Calm Calm - N/A   Scattered Clouds
6:38 AM 51.8 °F 51.8 °F 100% 30.09 in 10.0 mi Calm Calm - N/A   Overcast
6:55 AM 53.6 °F 51.8 °F 94% 30.09 in 10.0 mi North 3.5 mph - N/A   Overcast
7:15 AM 53.6 °F 51.8 °F 94% 30.10 in 10.0 mi Calm Calm - N/A   Overcast
7:35 AM 55.4 °F 51.8 °F 88% 30.11 in 10.0 mi Calm Calm - N/A   Overcast
7:59 AM 55.4 °F 51.8 °F 88% 30.11 in 10.0 mi Calm Calm - N/A   Overcast
8:17 AM 57.2 °F 51.8 °F 82% 30.11 in 10.0 mi Calm Calm - N/A   Overcast
8:35 AM 59.0 °F 51.8 °F 77% 30.11 in 10.0 mi Calm Calm - N/A   Overcast
8:36 AM 59.0 °F 51.8 °F 77% 30.11 in 10.0 mi Calm Calm - N/A   Overcast
8:55 AM 60.8 °F 51.8 °F 72% 30.11 in 10.0 mi Calm Calm - N/A   Overcast
9:15 AM 60.8 °F 51.8 °F 72% 30.12 in 10.0 mi Calm Calm - N/A   Overcast
9:38 AM 62.6 °F 51.8 °F 68% 30.11 in 10.0 mi Calm Calm - N/A   Overcast
9:56 AM 62.6 °F 51.8 °F 68% 30.11 in 10.0 mi Calm Calm - N/A   Overcast
10:15 AM 64.4 °F 51.8 °F 64% 30.12 in 10.0 mi Calm Calm - N/A   Overcast
10:16 AM 64.4 °F 51.8 °F 64% 30.12 in 10.0 mi Calm Calm - N/A   Mostly Cloudy
10:35 AM 66.2 °F 51.8 °F 60% 30.12 in 10.0 mi Calm Calm - N/A   Overcast
10:59 AM 68.0 °F 51.8 °F 56% 30.12 in 10.0 mi NE 3.5 mph - N/A   Mostly Cloudy
11:35 AM 69.8 °F 51.8 °F 53% 30.12 in 10.0 mi NNE 5.8 mph - N/A   Clear
11:36 AM 69.8 °F 51.8 °F 53% 30.12 in 10.0 mi North 4.6 mph - N/A   Clear
11:55 AM 69.8 °F 53.6 °F 56% 30.12 in 10.0 mi NNE 6.9 mph - N/A   Clear
11:56 AM 69.8 °F 53.6 °F 56% 30.12 in 10.0 mi NNE 6.9 mph - N/A   Clear
12:15 PM 69.8 °F 51.8 °F 53% 30.12 in 10.0 mi NE 5.8 mph - N/A   Scattered Clouds
12:20 PM 69.8 °F 51.8 °F 53% 30.12 in 10.0 mi NNW 4.6 mph - N/A   Scattered Clouds
12:37 PM 71.6 °F 50.0 °F 46% 30.12 in 10.0 mi Calm Calm - N/A   Scattered Clouds
12:56 PM 69.8 °F 48.2 °F 46% 30.11 in 10.0 mi North 4.6 mph - N/A   Clear
1:15 PM 71.6 °F 48.2 °F 43% 30.11 in 10.0 mi North 6.9 mph - N/A   Scattered Clouds
1:16 PM 69.8 °F 48.2 °F 46% 30.11 in 10.0 mi NNE 6.9 mph - N/A   Scattered Clouds
1:35 PM 71.6 °F 48.2 °F 43% 30.11 in 10.0 mi North 6.9 mph - N/A   Scattered Clouds
1:59 PM 73.4 °F 46.4 °F 38% 30.10 in 10.0 mi ENE 4.6 mph - N/A   Scattered Clouds
2:17 PM 73.4 °F 46.4 °F 38% 30.10 in 10.0 mi North 4.6 mph - N/A   Clear
2:35 PM 71.6 °F 48.2 °F 43% 30.10 in 10.0 mi NNE 4.6 mph - N/A   Scattered Clouds
2:55 PM 73.4 °F 48.2 °F 41% 30.10 in 10.0 mi NE 6.9 mph - N/A   Scattered Clouds
2:56 PM 73.4 °F 48.2 °F 41% 30.10 in 10.0 mi ENE 4.6 mph - N/A   Scattered Clouds
3:15 PM 71.6 °F 48.2 °F 43% 30.11 in 10.0 mi NE 5.8 mph - N/A   Scattered Clouds
3:20 PM 71.6 °F 48.2 °F 43% 30.11 in 10.0 mi Calm Calm - N/A   Scattered Clouds
3:38 PM 73.4 °F 48.2 °F 41% 30.10 in 10.0 mi NE 4.6 mph - N/A   Mostly Cloudy
3:56 PM 71.6 °F 48.2 °F 43% 30.10 in 10.0 mi NNE 5.8 mph - N/A   Overcast
4:15 PM 73.4 °F 51.8 °F 47% 30.10 in 10.0 mi NE 9.2 mph - N/A   Mostly Cloudy
4:16 PM 73.4 °F 51.8 °F 47% 30.10 in 10.0 mi NE 8.1 mph - N/A   Mostly Cloudy
4:35 PM 73.4 °F 50.0 °F 44% 30.10 in 10.0 mi NNE 8.1 mph - N/A   Mostly Cloudy
4:59 PM 71.6 °F 51.8 °F 50% 30.10 in 10.0 mi NE 8.1 mph - N/A   Mostly Cloudy
5:17 PM 71.6 °F 51.8 °F 50% 30.09 in 10.0 mi NE 6.9 mph - N/A   Scattered Clouds
5:35 PM 73.4 °F 51.8 °F 47% 30.09 in 10.0 mi NE 6.9 mph - N/A   Scattered Clouds
5:36 PM 73.4 °F 51.8 °F 47% 30.09 in 10.0 mi NNE 6.9 mph - N/A   Scattered Clouds
5:55 PM 71.6 °F 51.8 °F 50% 30.09 in 10.0 mi NE 5.8 mph - N/A   Scattered Clouds
6:15 PM 71.6 °F 51.8 °F 50% 30.09 in 10.0 mi ENE 5.8 mph - N/A   Scattered Clouds
6:20 PM 71.6 °F 51.8 °F 50% 30.09 in 10.0 mi East 5.8 mph - N/A   Scattered Clouds
6:38 PM 69.8 °F 51.8 °F 53% 30.10 in 10.0 mi ENE 6.9 mph - N/A   Clear
6:56 PM 69.8 °F 50.0 °F 49% 30.10 in 10.0 mi NE 5.8 mph - N/A   Clear
7:15 PM 69.8 °F 51.8 °F 53% 30.11 in 10.0 mi NE 5.8 mph - N/A   Clear
7:35 PM 66.2 °F 51.8 °F 60% 30.11 in 10.0 mi ENE 3.5 mph - N/A   Clear
7:36 PM 66.2 °F 51.8 °F 60% 30.11 in 10.0 mi ENE 3.5 mph - N/A   Clear
7:59 PM 66.2 °F 51.8 °F 60% 30.11 in 10.0 mi ENE 3.5 mph - N/A   Clear
8:17 PM 64.4 °F 51.8 °F 64% 30.12 in 10.0 mi Calm Calm - N/A   Clear
8:35 PM 62.6 °F 51.8 °F 68% 30.12 in 10.0 mi Calm Calm - N/A   Clear
8:55 PM 62.6 °F 53.6 °F 72% 30.12 in 10.0 mi NE 3.5 mph - N/A   Clear
8:56 PM 62.6 °F 53.6 °F 72% 30.12 in 10.0 mi ENE 3.5 mph - N/A   Clear
9:15 PM 62.6 °F 51.8 °F 68% 30.13 in 10.0 mi NE 4.6 mph - N/A   Clear
9:20 PM 60.8 °F 51.8 °F 72% 30.13 in 10.0 mi NE 3.5 mph - N/A   Clear
9:37 PM 62.6 °F 51.8 °F 68% 30.14 in 10.0 mi ENE 4.6 mph - N/A   Clear
9:56 PM 62.6 °F 51.8 °F 68% 30.14 in 10.0 mi ENE 3.5 mph - N/A   Clear
10:15 PM 60.8 °F 51.8 °F 72% 30.15 in 10.0 mi Calm Calm - N/A   Clear
10:16 PM 60.8 °F 51.8 °F 72% 30.15 in 10.0 mi ENE 3.5 mph - N/A   Clear
10:35 PM 59.0 °F 53.6 °F 82% 30.16 in 10.0 mi Calm Calm - N/A   Clear
10:59 PM 59.0 °F 51.8 °F 77% 30.16 in 10.0 mi Calm Calm - N/A   Clear
11:17 PM 57.2 °F 53.6 °F 88% 30.16 in 10.0 mi Calm Calm - N/A   Clear
11:35 PM 57.2 °F 51.8 °F 82% 30.16 in 10.0 mi Calm Calm - N/A   Clear
11:36 PM 57.2 °F 51.8 °F 82% 30.16 in 10.0 mi Calm Calm - N/A   Clear
11:55 PM 57.2 °F 51.8 °F 82% 30.16 in 10.0 mi Calm Calm - N/A   Clear
11:56 PM 57.2 °F 51.8 °F 82% 30.16 in 10.0 mi Calm Calm - N/A   Clear